sensor_id;sensor_type;location;lat;lon;timestamp;P1;durP1;ratioP1;P2;durP2;ratioP2
3873;SDS011;1952;50.872;6.692;2024-01-30T00:01:35;13.27;;;10.27;;
3873;SDS011;1952;50.872;6.692;2024-01-30T00:04:04;12.87;;;9.53;;
3873;SDS011;1952;50.872;6.692;2024-01-30T00:06:36;10.80;;;8.87;;
3873;SDS011;1952;50.872;6.692;2024-01-30T00:09:06;11.47;;;10.27;;
3873;SDS011;1952;50.872;6.692;2024-01-30T00:11:37;14.50;;;10.50;;
3873;SDS011;1952;50.872;6.692;2024-01-30T00:14:07;13.83;;;10.73;;
3873;SDS011;1952;50.872;6.692;2024-01-30T00:16:36;11.57;;;10.03;;
3873;SDS011;1952;50.872;6.692;2024-01-30T00:19:04;13.83;;;9.37;;
3873;SDS011;1952;50.872;6.692;2024-01-30T00:21:35;11.17;;;9.00;;
3873;SDS011;1952;50.872;6.692;2024-01-30T00:24:04;11.10;;;8.70;;
3873;SDS011;1952;50.872;6.692;2024-01-30T00:26:34;11.10;;;9.67;;
3873;SDS011;1952;50.872;6.692;2024-01-30T00:29:02;10.23;;;8.60;;
3873;SDS011;1952;50.872;6.692;2024-01-30T00:31:30;10.80;;;9.10;;
3873;SDS011;1952;50.872;6.692;2024-01-30T00:33:59;14.43;;;8.67;;
3873;SDS011;1952;50.872;6.692;2024-01-30T00:36:28;10.20;;;9.03;;
3873;SDS011;1952;50.872;6.692;2024-01-30T00:38:57;10.60;;;9.27;;
3873;SDS011;1952;50.872;6.692;2024-01-30T00:41:26;9.30;;;7.90;;
3873;SDS011;1952;50.872;6.692;2024-01-30T00:43:56;11.07;;;8.73;;
3873;SDS011;1952;50.872;6.692;2024-01-30T00:46:25;17.03;;;9.70;;
3873;SDS011;1952;50.872;6.692;2024-01-30T00:48:53;12.00;;;8.47;;
3873;SDS011;1952;50.872;6.692;2024-01-30T00:51:21;10.93;;;8.80;;
3873;SDS011;1952;50.872;6.692;2024-01-30T00:53:50;10.33;;;9.03;;
3873;SDS011;1952;50.872;6.692;2024-01-30T00:56:18;10.57;;;8.40;;
3873;SDS011;1952;50.872;6.692;2024-01-30T00:58:47;9.57;;;7.90;;
3873;SDS011;1952;50.872;6.692;2024-01-30T01:01:17;10.07;;;8.70;;
3873;SDS011;1952;50.872;6.692;2024-01-30T01:03:46;11.27;;;8.30;;
3873;SDS011;1952;50.872;6.692;2024-01-30T01:06:15;10.83;;;8.30;;
3873;SDS011;1952;50.872;6.692;2024-01-30T02:14:01;12.27;;;8.07;;
3873;SDS011;1952;50.872;6.692;2024-01-30T02:16:30;9.80;;;8.43;;
3873;SDS011;1952;50.872;6.692;2024-01-30T02:18:58;13.63;;;8.60;;
3873;SDS011;1952;50.872;6.692;2024-01-30T02:21:28;12.23;;;8.70;;
3873;SDS011;1952;50.872;6.692;2024-01-30T02:23:56;15.10;;;9.93;;
3873;SDS011;1952;50.872;6.692;2024-01-30T02:26:27;10.37;;;8.40;;
3873;SDS011;1952;50.872;6.692;2024-01-30T02:28:55;9.40;;;8.50;;
3873;SDS011;1952;50.872;6.692;2024-01-30T02:31:24;9.67;;;8.20;;
3873;SDS011;1952;50.872;6.692;2024-01-30T02:33:53;9.60;;;8.60;;
3873;SDS011;1952;50.872;6.692;2024-01-30T02:36:22;11.00;;;8.60;;
3873;SDS011;1952;50.872;6.692;2024-01-30T02:38:52;11.30;;;9.33;;
3873;SDS011;1952;50.872;6.692;2024-01-30T02:41:21;14.00;;;9.10;;
3873;SDS011;1952;50.872;6.692;2024-01-30T02:43:49;10.27;;;8.70;;
3873;SDS011;1952;50.872;6.692;2024-01-30T02:46:17;10.50;;;7.97;;
3873;SDS011;1952;50.872;6.692;2024-01-30T02:48:46;11.07;;;8.60;;
3873;SDS011;1952;50.872;6.692;2024-01-30T02:51:15;10.20;;;8.77;;
3873;SDS011;1952;50.872;6.692;2024-01-30T02:53:43;14.33;;;9.23;;
3873;SDS011;1952;50.872;6.692;2024-01-30T02:56:13;12.40;;;7.40;;
3873;SDS011;1952;50.872;6.692;2024-01-30T02:58:42;8.80;;;7.67;;
3873;SDS011;1952;50.872;6.692;2024-01-30T03:01:10;9.20;;;7.90;;
3873;SDS011;1952;50.872;6.692;2024-01-30T03:03:39;10.47;;;7.83;;
3873;SDS011;1952;50.872;6.692;2024-01-30T03:06:09;13.80;;;8.50;;
3873;SDS011;1952;50.872;6.692;2024-01-30T03:08:39;10.23;;;8.40;;
3873;SDS011;1952;50.872;6.692;2024-01-30T03:11:07;12.80;;;7.63;;
3873;SDS011;1952;50.872;6.692;2024-01-30T03:13:37;9.53;;;7.97;;
3873;SDS011;1952;50.872;6.692;2024-01-30T03:16:08;12.57;;;9.73;;
3873;SDS011;1952;50.872;6.692;2024-01-30T03:18:36;12.10;;;8.30;;
3873;SDS011;1952;50.872;6.692;2024-01-30T03:21:05;8.90;;;7.93;;
3873;SDS011;1952;50.872;6.692;2024-01-30T03:23:33;10.40;;;7.40;;
3873;SDS011;1952;50.872;6.692;2024-01-30T03:26:01;10.50;;;9.13;;
3873;SDS011;1952;50.872;6.692;2024-01-30T03:28:33;9.17;;;8.23;;
3873;SDS011;1952;50.872;6.692;2024-01-30T03:31:02;10.70;;;8.73;;
3873;SDS011;1952;50.872;6.692;2024-01-30T03:33:31;7.43;;;6.73;;
3873;SDS011;1952;50.872;6.692;2024-01-30T03:36:02;8.80;;;7.53;;
3873;SDS011;1952;50.872;6.692;2024-01-30T03:38:30;9.83;;;7.40;;
3873;SDS011;1952;50.872;6.692;2024-01-30T03:40:59;10.37;;;7.80;;
3873;SDS011;1952;50.872;6.692;2024-01-30T03:43:28;10.80;;;7.60;;
3873;SDS011;1952;50.872;6.692;2024-01-30T03:45:56;9.00;;;7.47;;
3873;SDS011;1952;50.872;6.692;2024-01-30T03:48:28;8.43;;;7.53;;
3873;SDS011;1952;50.872;6.692;2024-01-30T03:50:57;10.53;;;8.10;;
3873;SDS011;1952;50.872;6.692;2024-01-30T03:53:25;11.10;;;8.30;;
3873;SDS011;1952;50.872;6.692;2024-01-30T03:55:54;8.90;;;7.47;;
3873;SDS011;1952;50.872;6.692;2024-01-30T03:58:22;9.80;;;8.13;;
3873;SDS011;1952;50.872;6.692;2024-01-30T04:00:51;10.40;;;7.47;;
3873;SDS011;1952;50.872;6.692;2024-01-30T04:03:19;9.33;;;7.63;;
3873;SDS011;1952;50.872;6.692;2024-01-30T04:05:49;10.30;;;7.50;;
3873;SDS011;1952;50.872;6.692;2024-01-30T04:08:17;7.43;;;6.83;;
3873;SDS011;1952;50.872;6.692;2024-01-30T04:10:46;9.90;;;7.83;;
3873;SDS011;1952;50.872;6.692;2024-01-30T04:13:14;8.83;;;7.97;;
3873;SDS011;1952;50.872;6.692;2024-01-30T04:15:43;7.83;;;7.03;;
3873;SDS011;1952;50.872;6.692;2024-01-30T04:18:12;9.63;;;8.30;;
3873;SDS011;1952;50.872;6.692;2024-01-30T04:20:40;8.70;;;7.30;;
3873;SDS011;1952;50.872;6.692;2024-01-30T04:23:11;9.10;;;8.17;;
3873;SDS011;1952;50.872;6.692;2024-01-30T04:25:39;10.37;;;8.70;;
3873;SDS011;1952;50.872;6.692;2024-01-30T04:28:07;11.10;;;8.80;;
3873;SDS011;1952;50.872;6.692;2024-01-30T04:30:38;10.90;;;8.23;;
3873;SDS011;1952;50.872;6.692;2024-01-30T04:33:06;13.80;;;7.90;;
3873;SDS011;1952;50.872;6.692;2024-01-30T04:35:35;10.23;;;7.40;;
3873;SDS011;1952;50.872;6.692;2024-01-30T04:38:04;7.03;;;6.33;;
3873;SDS011;1952;50.872;6.692;2024-01-30T04:40:34;9.10;;;6.63;;
3873;SDS011;1952;50.872;6.692;2024-01-30T04:43:03;12.50;;;8.07;;
3873;SDS011;1952;50.872;6.692;2024-01-30T04:45:32;8.77;;;7.60;;
3873;SDS011;1952;50.872;6.692;2024-01-30T04:48:02;10.40;;;7.37;;
3873;SDS011;1952;50.872;6.692;2024-01-30T04:50:32;8.87;;;7.17;;
3873;SDS011;1952;50.872;6.692;2024-01-30T04:53:00;15.43;;;10.40;;
3873;SDS011;1952;50.872;6.692;2024-01-30T04:55:29;17.83;;;11.77;;
3873;SDS011;1952;50.872;6.692;2024-01-30T04:57:59;13.73;;;12.30;;
3873;SDS011;1952;50.872;6.692;2024-01-30T05:00:27;16.40;;;12.23;;
3873;SDS011;1952;50.872;6.692;2024-01-30T05:02:56;15.93;;;11.50;;
3873;SDS011;1952;50.872;6.692;2024-01-30T05:05:25;11.40;;;8.40;;
3873;SDS011;1952;50.872;6.692;2024-01-30T05:07:53;9.73;;;8.63;;
3873;SDS011;1952;50.872;6.692;2024-01-30T05:10:22;14.90;;;9.13;;
3873;SDS011;1952;50.872;6.692;2024-01-30T05:12:51;12.50;;;8.33;;
3873;SDS011;1952;50.872;6.692;2024-01-30T05:15:20;12.53;;;8.23;;
3873;SDS011;1952;50.872;6.692;2024-01-30T05:17:49;9.07;;;7.80;;
3873;SDS011;1952;50.872;6.692;2024-01-30T05:20:17;8.93;;;7.70;;
3873;SDS011;1952;50.872;6.692;2024-01-30T05:22:46;9.13;;;7.40;;
3873;SDS011;1952;50.872;6.692;2024-01-30T05:25:14;8.50;;;7.13;;
3873;SDS011;1952;50.872;6.692;2024-01-30T05:27:43;8.80;;;7.97;;
3873;SDS011;1952;50.872;6.692;2024-01-30T05:30:12;9.47;;;7.00;;
3873;SDS011;1952;50.872;6.692;2024-01-30T05:32:42;9.00;;;7.40;;
3873;SDS011;1952;50.872;6.692;2024-01-30T05:35:10;8.53;;;7.00;;
3873;SDS011;1952;50.872;6.692;2024-01-30T05:37:39;7.77;;;6.97;;
3873;SDS011;1952;50.872;6.692;2024-01-30T05:40:08;14.27;;;7.60;;
3873;SDS011;1952;50.872;6.692;2024-01-30T05:42:37;9.40;;;7.70;;
3873;SDS011;1952;50.872;6.692;2024-01-30T05:45:06;9.77;;;7.90;;
3873;SDS011;1952;50.872;6.692;2024-01-30T05:47:34;8.23;;;7.30;;
3873;SDS011;1952;50.872;6.692;2024-01-30T05:50:05;10.43;;;7.63;;
3873;SDS011;1952;50.872;6.692;2024-01-30T05:52:34;8.93;;;7.17;;
3873;SDS011;1952;50.872;6.692;2024-01-30T05:55:03;9.80;;;7.27;;
3873;SDS011;1952;50.872;6.692;2024-01-30T05:57:32;8.90;;;7.13;;
3873;SDS011;1952;50.872;6.692;2024-01-30T06:00:02;11.80;;;8.40;;
3873;SDS011;1952;50.872;6.692;2024-01-30T06:02:31;12.90;;;9.00;;
3873;SDS011;1952;50.872;6.692;2024-01-30T06:04:59;10.53;;;7.40;;
3873;SDS011;1952;50.872;6.692;2024-01-30T06:07:31;10.93;;;8.50;;
3873;SDS011;1952;50.872;6.692;2024-01-30T06:10:11;11.17;;;8.30;;
3873;SDS011;1952;50.872;6.692;2024-01-30T06:12:41;11.67;;;8.70;;
3873;SDS011;1952;50.872;6.692;2024-01-30T06:15:10;11.53;;;8.80;;
3873;SDS011;1952;50.872;6.692;2024-01-30T06:17:41;14.50;;;7.90;;
3873;SDS011;1952;50.872;6.692;2024-01-30T06:20:46;8.67;;;7.13;;
3873;SDS011;1952;50.872;6.692;2024-01-30T06:23:31;8.77;;;7.47;;
3873;SDS011;1952;50.872;6.692;2024-01-30T06:26:04;7.20;;;6.37;;
3873;SDS011;1952;50.872;6.692;2024-01-30T06:28:36;12.10;;;8.70;;
3873;SDS011;1952;50.872;6.692;2024-01-30T06:31:06;9.07;;;7.67;;
3873;SDS011;1952;50.872;6.692;2024-01-30T06:33:38;11.30;;;9.27;;
3873;SDS011;1952;50.872;6.692;2024-01-30T06:36:23;10.10;;;7.83;;
3873;SDS011;1952;50.872;6.692;2024-01-30T06:38:54;9.77;;;8.67;;
3873;SDS011;1952;50.872;6.692;2024-01-30T06:41:23;10.00;;;7.70;;
3873;SDS011;1952;50.872;6.692;2024-01-30T06:43:53;12.97;;;8.30;;
3873;SDS011;1952;50.872;6.692;2024-01-30T06:46:23;9.77;;;7.50;;
3873;SDS011;1952;50.872;6.692;2024-01-30T06:49:15;11.70;;;6.80;;
3873;SDS011;1952;50.872;6.692;2024-01-30T06:51:49;11.30;;;7.50;;
3873;SDS011;1952;50.872;6.692;2024-01-30T06:54:21;9.20;;;8.07;;
3873;SDS011;1952;50.872;6.692;2024-01-30T06:56:52;9.23;;;7.80;;
3873;SDS011;1952;50.872;6.692;2024-01-30T06:59:26;10.73;;;7.63;;
3873;SDS011;1952;50.872;6.692;2024-01-30T07:02:22;9.30;;;8.27;;
3873;SDS011;1952;50.872;6.692;2024-01-30T07:05:18;16.87;;;9.50;;
3873;SDS011;1952;50.872;6.692;2024-01-30T07:07:51;9.23;;;8.20;;
3873;SDS011;1952;50.872;6.692;2024-01-30T07:13:32;10.20;;;8.00;;
3873;SDS011;1952;50.872;6.692;2024-01-30T07:16:02;13.13;;;8.50;;
3873;SDS011;1952;50.872;6.692;2024-01-30T07:18:33;10.13;;;8.23;;
3873;SDS011;1952;50.872;6.692;2024-01-30T07:21:12;11.80;;;9.20;;
3873;SDS011;1952;50.872;6.692;2024-01-30T07:23:42;14.87;;;11.77;;
3873;SDS011;1952;50.872;6.692;2024-01-30T07:26:25;12.67;;;10.47;;
3873;SDS011;1952;50.872;6.692;2024-01-30T07:28:58;12.00;;;10.23;;
3873;SDS011;1952;50.872;6.692;2024-01-30T07:31:28;8.80;;;7.37;;
3873;SDS011;1952;50.872;6.692;2024-01-30T07:34:01;9.80;;;8.30;;
3873;SDS011;1952;50.872;6.692;2024-01-30T07:36:31;8.40;;;7.07;;
3873;SDS011;1952;50.872;6.692;2024-01-30T07:39:00;13.23;;;8.57;;
3873;SDS011;1952;50.872;6.692;2024-01-30T07:41:51;7.50;;;6.90;;
3873;SDS011;1952;50.872;6.692;2024-01-30T07:44:32;9.73;;;8.77;;
3873;SDS011;1952;50.872;6.692;2024-01-30T07:47:02;9.97;;;7.70;;
3873;SDS011;1952;50.872;6.692;2024-01-30T07:49:44;8.67;;;7.83;;
3873;SDS011;1952;50.872;6.692;2024-01-30T07:52:15;11.13;;;9.97;;
3873;SDS011;1952;50.872;6.692;2024-01-30T07:54:44;10.07;;;8.37;;
3873;SDS011;1952;50.872;6.692;2024-01-30T07:57:13;9.67;;;8.03;;
3873;SDS011;1952;50.872;6.692;2024-01-30T07:59:46;12.73;;;8.90;;
3873;SDS011;1952;50.872;6.692;2024-01-30T08:02:21;9.80;;;7.70;;
3873;SDS011;1952;50.872;6.692;2024-01-30T08:04:50;8.90;;;7.67;;
3873;SDS011;1952;50.872;6.692;2024-01-30T08:07:38;10.40;;;9.27;;
3873;SDS011;1952;50.872;6.692;2024-01-30T08:10:08;8.77;;;7.67;;
3873;SDS011;1952;50.872;6.692;2024-01-30T08:12:38;10.10;;;8.87;;
3873;SDS011;1952;50.872;6.692;2024-01-30T08:15:12;11.60;;;8.80;;
3873;SDS011;1952;50.872;6.692;2024-01-30T08:17:45;10.10;;;9.00;;
3873;SDS011;1952;50.872;6.692;2024-01-30T08:20:29;10.00;;;9.00;;
3873;SDS011;1952;50.872;6.692;2024-01-30T08:23:00;10.17;;;8.77;;
3873;SDS011;1952;50.872;6.692;2024-01-30T08:25:31;12.10;;;8.33;;
3873;SDS011;1952;50.872;6.692;2024-01-30T08:28:00;14.70;;;9.40;;
3873;SDS011;1952;50.872;6.692;2024-01-30T08:30:33;10.47;;;8.30;;
3873;SDS011;1952;50.872;6.692;2024-01-30T08:33:03;13.40;;;9.00;;
3873;SDS011;1952;50.872;6.692;2024-01-30T08:35:32;12.10;;;9.30;;
3873;SDS011;1952;50.872;6.692;2024-01-30T08:38:03;9.83;;;8.63;;
3873;SDS011;1952;50.872;6.692;2024-01-30T08:40:45;11.33;;;7.83;;
3873;SDS011;1952;50.872;6.692;2024-01-30T08:43:23;9.37;;;8.47;;
3873;SDS011;1952;50.872;6.692;2024-01-30T08:46:10;9.20;;;8.00;;
3873;SDS011;1952;50.872;6.692;2024-01-30T08:48:59;9.77;;;8.77;;
3873;SDS011;1952;50.872;6.692;2024-01-30T08:51:30;20.40;;;16.70;;
3873;SDS011;1952;50.872;6.692;2024-01-30T08:54:00;29.43;;;17.30;;
3873;SDS011;1952;50.872;6.692;2024-01-30T08:56:56;65.20;;;38.67;;
3873;SDS011;1952;50.872;6.692;2024-01-30T08:59:27;86.13;;;42.87;;
3873;SDS011;1952;50.872;6.692;2024-01-30T09:02:01;48.77;;;25.70;;
3873;SDS011;1952;50.872;6.692;2024-01-30T09:04:38;15.57;;;11.17;;
3873;SDS011;1952;50.872;6.692;2024-01-30T09:07:39;24.10;;;17.17;;
3873;SDS011;1952;50.872;6.692;2024-01-30T09:10:26;40.60;;;24.00;;
3873;SDS011;1952;50.872;6.692;2024-01-30T09:13:09;13.77;;;9.87;;
3873;SDS011;1952;50.872;6.692;2024-01-30T09:15:40;61.33;;;36.67;;
3873;SDS011;1952;50.872;6.692;2024-01-30T09:18:12;18.60;;;13.17;;
3873;SDS011;1952;50.872;6.692;2024-01-30T09:20:49;19.27;;;14.33;;
3873;SDS011;1952;50.872;6.692;2024-01-30T09:23:18;15.37;;;11.80;;
3873;SDS011;1952;50.872;6.692;2024-01-30T09:25:47;12.13;;;10.70;;
3873;SDS011;1952;50.872;6.692;2024-01-30T09:28:16;15.17;;;12.53;;
3873;SDS011;1952;50.872;6.692;2024-01-30T09:30:50;14.73;;;11.67;;
3873;SDS011;1952;50.872;6.692;2024-01-30T09:33:30;14.03;;;12.63;;
3873;SDS011;1952;50.872;6.692;2024-01-30T09:36:09;9.27;;;8.20;;
3873;SDS011;1952;50.872;6.692;2024-01-30T09:38:38;10.20;;;7.43;;
3873;SDS011;1952;50.872;6.692;2024-01-30T09:41:09;8.90;;;8.00;;
3873;SDS011;1952;50.872;6.692;2024-01-30T09:43:40;10.00;;;7.93;;
3873;SDS011;1952;50.872;6.692;2024-01-30T09:46:12;8.07;;;7.00;;
3873;SDS011;1952;50.872;6.692;2024-01-30T09:51:36;11.53;;;9.43;;
3873;SDS011;1952;50.872;6.692;2024-01-30T09:54:06;9.47;;;7.07;;
3873;SDS011;1952;50.872;6.692;2024-01-30T09:56:36;8.93;;;8.03;;
3873;SDS011;1952;50.872;6.692;2024-01-30T09:59:08;9.23;;;7.53;;
3873;SDS011;1952;50.872;6.692;2024-01-30T10:01:39;11.17;;;8.17;;
3873;SDS011;1952;50.872;6.692;2024-01-30T10:04:09;11.93;;;9.40;;
3873;SDS011;1952;50.872;6.692;2024-01-30T10:06:45;12.73;;;8.70;;
3873;SDS011;1952;50.872;6.692;2024-01-30T10:09:16;10.30;;;8.33;;
3873;SDS011;1952;50.872;6.692;2024-01-30T10:11:45;8.93;;;8.03;;
3873;SDS011;1952;50.872;6.692;2024-01-30T10:14:15;9.63;;;8.63;;
3873;SDS011;1952;50.872;6.692;2024-01-30T10:16:45;8.23;;;7.40;;
3873;SDS011;1952;50.872;6.692;2024-01-30T10:19:15;10.60;;;7.70;;
3873;SDS011;1952;50.872;6.692;2024-01-30T10:21:51;9.37;;;8.37;;
3873;SDS011;1952;50.872;6.692;2024-01-30T10:24:23;9.50;;;8.40;;
3873;SDS011;1952;50.872;6.692;2024-01-30T10:29:33;11.00;;;7.53;;
3873;SDS011;1952;50.872;6.692;2024-01-30T10:32:11;9.07;;;7.83;;
3873;SDS011;1952;50.872;6.692;2024-01-30T10:34:40;8.00;;;7.20;;
3873;SDS011;1952;50.872;6.692;2024-01-30T10:37:13;9.40;;;7.53;;
3873;SDS011;1952;50.872;6.692;2024-01-30T10:39:45;10.23;;;7.40;;
3873;SDS011;1952;50.872;6.692;2024-01-30T10:42:15;10.40;;;7.40;;
3873;SDS011;1952;50.872;6.692;2024-01-30T10:44:54;9.77;;;7.80;;
3873;SDS011;1952;50.872;6.692;2024-01-30T10:47:57;8.57;;;7.63;;
3873;SDS011;1952;50.872;6.692;2024-01-30T10:50:55;10.63;;;8.10;;
3873;SDS011;1952;50.872;6.692;2024-01-30T10:56:52;10.47;;;8.40;;
3873;SDS011;1952;50.872;6.692;2024-01-30T10:59:36;8.10;;;7.50;;
3873;SDS011;1952;50.872;6.692;2024-01-30T11:02:14;9.83;;;8.83;;
3873;SDS011;1952;50.872;6.692;2024-01-30T11:04:48;12.60;;;8.30;;
3873;SDS011;1952;50.872;6.692;2024-01-30T11:07:31;10.23;;;8.20;;
3873;SDS011;1952;50.872;6.692;2024-01-30T11:10:02;10.33;;;8.30;;
3873;SDS011;1952;50.872;6.692;2024-01-30T11:15:45;9.00;;;8.10;;
3873;SDS011;1952;50.872;6.692;2024-01-30T11:18:30;12.53;;;8.00;;
3873;SDS011;1952;50.872;6.692;2024-01-30T11:21:05;9.07;;;8.10;;
3873;SDS011;1952;50.872;6.692;2024-01-30T11:23:40;16.03;;;9.23;;
3873;SDS011;1952;50.872;6.692;2024-01-30T11:26:59;14.77;;;8.80;;
3873;SDS011;1952;50.872;6.692;2024-01-30T11:32:43;12.20;;;8.43;;
3873;SDS011;1952;50.872;6.692;2024-01-30T11:35:24;10.10;;;8.63;;
3873;SDS011;1952;50.872;6.692;2024-01-30T11:38:18;10.47;;;8.53;;
3873;SDS011;1952;50.872;6.692;2024-01-30T11:41:26;11.50;;;8.37;;
3873;SDS011;1952;50.872;6.692;2024-01-30T11:47:05;9.70;;;8.70;;
3873;SDS011;1952;50.872;6.692;2024-01-30T11:49:38;13.87;;;10.47;;
3873;SDS011;1952;50.872;6.692;2024-01-30T11:52:14;17.73;;;11.13;;
3873;SDS011;1952;50.872;6.692;2024-01-30T11:55:02;14.03;;;9.27;;
3873;SDS011;1952;50.872;6.692;2024-01-30T11:57:36;13.67;;;9.23;;
3873;SDS011;1952;50.872;6.692;2024-01-30T12:00:42;11.70;;;7.93;;
3873;SDS011;1952;50.872;6.692;2024-01-30T12:03:49;11.53;;;8.30;;
3873;SDS011;1952;50.872;6.692;2024-01-30T12:09:03;16.60;;;8.90;;
3873;SDS011;1952;50.872;6.692;2024-01-30T12:11:48;12.13;;;9.93;;
3873;SDS011;1952;50.872;6.692;2024-01-30T12:14:33;12.80;;;9.00;;
3873;SDS011;1952;50.872;6.692;2024-01-30T12:17:28;14.60;;;9.30;;
3873;SDS011;1952;50.872;6.692;2024-01-30T12:20:20;12.87;;;9.67;;
3873;SDS011;1952;50.872;6.692;2024-01-30T12:23:17;10.23;;;7.93;;
3873;SDS011;1952;50.872;6.692;2024-01-30T12:26:10;9.80;;;8.07;;
3873;SDS011;1952;50.872;6.692;2024-01-30T12:31:27;9.57;;;8.27;;
3873;SDS011;1952;50.872;6.692;2024-01-30T12:34:07;8.70;;;7.50;;
3873;SDS011;1952;50.872;6.692;2024-01-30T12:36:39;8.13;;;7.33;;
3873;SDS011;1952;50.872;6.692;2024-01-30T12:39:26;18.60;;;8.00;;
3873;SDS011;1952;50.872;6.692;2024-01-30T12:42:01;9.10;;;6.80;;
3873;SDS011;1952;50.872;6.692;2024-01-30T12:44:51;10.13;;;7.00;;
3873;SDS011;1952;50.872;6.692;2024-01-30T12:50:16;11.10;;;7.00;;
3873;SDS011;1952;50.872;6.692;2024-01-30T12:53:11;7.30;;;6.40;;
3873;SDS011;1952;50.872;6.692;2024-01-30T12:55:47;9.93;;;7.00;;
3873;SDS011;1952;50.872;6.692;2024-01-30T13:50:05;8.13;;;5.23;;
3873;SDS011;1952;50.872;6.692;2024-01-30T14:01:16;7.93;;;5.80;;
3873;SDS011;1952;50.872;6.692;2024-01-30T14:25:06;7.83;;;6.30;;
3873;SDS011;1952;50.872;6.692;2024-01-30T14:41:39;7.20;;;6.50;;
3873;SDS011;1952;50.872;6.692;2024-01-30T14:47:44;7.70;;;6.93;;
3873;SDS011;1952;50.872;6.692;2024-01-30T14:50:40;8.57;;;6.50;;
3873;SDS011;1952;50.872;6.692;2024-01-30T14:53:19;7.63;;;6.30;;
3873;SDS011;1952;50.872;6.692;2024-01-30T14:56:01;7.57;;;5.80;;
3873;SDS011;1952;50.872;6.692;2024-01-30T15:04:42;9.47;;;7.40;;
3873;SDS011;1952;50.872;6.692;2024-01-30T15:11:04;9.13;;;7.00;;
3873;SDS011;1952;50.872;6.692;2024-01-30T17:12:21;3.40;;;2.60;;
3873;SDS011;1952;50.872;6.692;2024-01-30T17:15:18;2.10;;;2.00;;
3873;SDS011;1952;50.872;6.692;2024-01-30T17:18:12;2.60;;;2.40;;
3873;SDS011;1952;50.872;6.692;2024-01-30T17:20:54;2.87;;;2.67;;
3873;SDS011;1952;50.872;6.692;2024-01-30T17:23:25;5.27;;;2.13;;
3873;SDS011;1952;50.872;6.692;2024-01-30T17:26:23;3.37;;;3.07;;
3873;SDS011;1952;50.872;6.692;2024-01-30T17:29:18;3.60;;;2.10;;
3873;SDS011;1952;50.872;6.692;2024-01-30T17:32:05;4.20;;;2.50;;
3873;SDS011;1952;50.872;6.692;2024-01-30T17:34:40;3.47;;;2.40;;
3873;SDS011;1952;50.872;6.692;2024-01-30T17:37:09;2.83;;;2.53;;
3873;SDS011;1952;50.872;6.692;2024-01-30T17:40:08;2.90;;;2.50;;
3873;SDS011;1952;50.872;6.692;2024-01-30T17:49:43;2.80;;;2.60;;
3873;SDS011;1952;50.872;6.692;2024-01-30T17:52:33;3.07;;;2.13;;
3873;SDS011;1952;50.872;6.692;2024-01-30T17:55:29;2.67;;;2.10;;
3873;SDS011;1952;50.872;6.692;2024-01-30T17:58:32;2.60;;;2.23;;
3873;SDS011;1952;50.872;6.692;2024-01-30T18:01:29;3.83;;;2.23;;
3873;SDS011;1952;50.872;6.692;2024-01-30T18:04:07;2.67;;;2.47;;
3873;SDS011;1952;50.872;6.692;2024-01-30T18:23:39;4.47;;;2.10;;
3873;SDS011;1952;50.872;6.692;2024-01-30T18:26:24;2.93;;;1.70;;
3873;SDS011;1952;50.872;6.692;2024-01-30T18:29:22;7.97;;;1.77;;
3873;SDS011;1952;50.872;6.692;2024-01-30T18:32:22;2.40;;;2.20;;
3873;SDS011;1952;50.872;6.692;2024-01-30T18:35:23;8.07;;;2.40;;
3873;SDS011;1952;50.872;6.692;2024-01-30T18:38:23;9.13;;;1.90;;
3873;SDS011;1952;50.872;6.692;2024-01-30T18:41:22;2.50;;;2.00;;
3873;SDS011;1952;50.872;6.692;2024-01-30T18:44:20;4.40;;;3.20;;
3873;SDS011;1952;50.872;6.692;2024-01-30T18:47:08;6.67;;;2.20;;
3873;SDS011;1952;50.872;6.692;2024-01-30T19:16:20;3.63;;;2.77;;
3873;SDS011;1952;50.872;6.692;2024-01-30T19:19:10;3.13;;;2.50;;
3873;SDS011;1952;50.872;6.692;2024-01-30T19:21:40;5.33;;;2.50;;
3873;SDS011;1952;50.872;6.692;2024-01-30T19:27:16;4.00;;;2.33;;
3873;SDS011;1952;50.872;6.692;2024-01-30T19:44:31;2.20;;;2.00;;
3873;SDS011;1952;50.872;6.692;2024-01-30T19:47:31;3.27;;;2.83;;
3873;SDS011;1952;50.872;6.692;2024-01-30T19:50:25;2.10;;;2.00;;
3873;SDS011;1952;50.872;6.692;2024-01-30T19:53:08;3.30;;;2.63;;
3873;SDS011;1952;50.872;6.692;2024-01-30T19:56:05;2.33;;;1.90;;
3873;SDS011;1952;50.872;6.692;2024-01-30T19:59:04;2.83;;;2.43;;
3873;SDS011;1952;50.872;6.692;2024-01-30T20:05:01;3.83;;;2.50;;
3873;SDS011;1952;50.872;6.692;2024-01-30T20:07:43;3.00;;;2.60;;
3873;SDS011;1952;50.872;6.692;2024-01-30T20:10:22;7.27;;;3.20;;
3873;SDS011;1952;50.872;6.692;2024-01-30T20:13:05;12.10;;;4.67;;
3873;SDS011;1952;50.872;6.692;2024-01-30T20:15:52;2.80;;;2.10;;
3873;SDS011;1952;50.872;6.692;2024-01-30T20:18:21;5.13;;;2.10;;
3873;SDS011;1952;50.872;6.692;2024-01-30T20:30:29;3.10;;;2.20;;
3873;SDS011;1952;50.872;6.692;2024-01-30T20:33:32;3.60;;;2.97;;
3873;SDS011;1952;50.872;6.692;2024-01-30T20:36:31;6.33;;;2.27;;
3873;SDS011;1952;50.872;6.692;2024-01-30T20:39:16;2.73;;;2.53;;
3873;SDS011;1952;50.872;6.692;2024-01-30T21:06:56;3.40;;;2.07;;
3873;SDS011;1952;50.872;6.692;2024-01-30T21:09:29;4.37;;;2.83;;
3873;SDS011;1952;50.872;6.692;2024-01-30T21:12:25;5.43;;;2.50;;
3873;SDS011;1952;50.872;6.692;2024-01-30T21:15:10;2.77;;;2.23;;
3873;SDS011;1952;50.872;6.692;2024-01-30T21:17:56;3.87;;;2.90;;
3873;SDS011;1952;50.872;6.692;2024-01-30T21:20:39;3.70;;;2.63;;
3873;SDS011;1952;50.872;6.692;2024-01-30T21:23:14;3.73;;;2.37;;
3873;SDS011;1952;50.872;6.692;2024-01-30T21:25:47;3.93;;;2.93;;
3873;SDS011;1952;50.872;6.692;2024-01-30T21:28:33;3.70;;;2.60;;
3873;SDS011;1952;50.872;6.692;2024-01-30T21:31:03;4.63;;;3.20;;
3873;SDS011;1952;50.872;6.692;2024-01-30T21:33:46;3.40;;;2.70;;
3873;SDS011;1952;50.872;6.692;2024-01-30T21:36:17;5.47;;;3.13;;
3873;SDS011;1952;50.872;6.692;2024-01-30T21:38:48;3.10;;;2.80;;
3873;SDS011;1952;50.872;6.692;2024-01-30T21:41:33;10.40;;;3.00;;
3873;SDS011;1952;50.872;6.692;2024-01-30T21:44:02;2.87;;;2.67;;
3873;SDS011;1952;50.872;6.692;2024-01-30T21:46:31;2.93;;;2.63;;
3873;SDS011;1952;50.872;6.692;2024-01-30T21:49:00;6.90;;;2.30;;
3873;SDS011;1952;50.872;6.692;2024-01-30T21:51:32;3.80;;;2.87;;
3873;SDS011;1952;50.872;6.692;2024-01-30T21:54:03;3.93;;;3.63;;
3873;SDS011;1952;50.872;6.692;2024-01-30T21:56:31;2.70;;;2.50;;
3873;SDS011;1952;50.872;6.692;2024-01-30T21:59:14;5.07;;;2.80;;
3873;SDS011;1952;50.872;6.692;2024-01-30T22:01:44;3.13;;;2.83;;
3873;SDS011;1952;50.872;6.692;2024-01-30T22:04:15;5.40;;;2.60;;
3873;SDS011;1952;50.872;6.692;2024-01-30T22:06:57;2.80;;;2.47;;
3873;SDS011;1952;50.872;6.692;2024-01-30T22:09:26;4.13;;;3.70;;
3873;SDS011;1952;50.872;6.692;2024-01-30T22:12:00;4.30;;;3.00;;
3873;SDS011;1952;50.872;6.692;2024-01-30T22:14:29;3.77;;;3.47;;
3873;SDS011;1952;50.872;6.692;2024-01-30T22:17:11;4.43;;;4.13;;
3873;SDS011;1952;50.872;6.692;2024-01-30T22:19:40;7.47;;;3.53;;
3873;SDS011;1952;50.872;6.692;2024-01-30T22:22:11;3.07;;;2.80;;
3873;SDS011;1952;50.872;6.692;2024-01-30T22:24:44;3.50;;;2.87;;
3873;SDS011;1952;50.872;6.692;2024-01-30T22:27:14;3.47;;;3.20;;
3873;SDS011;1952;50.872;6.692;2024-01-30T22:29:44;4.27;;;3.27;;
3873;SDS011;1952;50.872;6.692;2024-01-30T22:32:16;3.80;;;3.40;;
3873;SDS011;1952;50.872;6.692;2024-01-30T22:34:58;6.93;;;3.20;;
3873;SDS011;1952;50.872;6.692;2024-01-30T22:37:43;6.00;;;3.27;;
3873;SDS011;1952;50.872;6.692;2024-01-30T22:40:16;5.40;;;4.90;;
3873;SDS011;1952;50.872;6.692;2024-01-30T22:42:47;4.77;;;4.47;;
3873;SDS011;1952;50.872;6.692;2024-01-30T22:45:16;5.63;;;4.37;;
3873;SDS011;1952;50.872;6.692;2024-01-30T22:47:59;3.53;;;3.23;;
3873;SDS011;1952;50.872;6.692;2024-01-30T22:50:27;4.90;;;4.40;;
3873;SDS011;1952;50.872;6.692;2024-01-30T22:53:00;4.13;;;3.53;;
3873;SDS011;1952;50.872;6.692;2024-01-30T22:55:38;5.10;;;3.30;;
3873;SDS011;1952;50.872;6.692;2024-01-30T22:58:08;5.17;;;3.30;;
3873;SDS011;1952;50.872;6.692;2024-01-30T23:00:38;5.07;;;4.10;;
3873;SDS011;1952;50.872;6.692;2024-01-30T23:03:08;3.90;;;3.60;;
3873;SDS011;1952;50.872;6.692;2024-01-30T23:05:39;4.90;;;3.00;;
3873;SDS011;1952;50.872;6.692;2024-01-30T23:08:09;4.37;;;3.70;;